sensor_id;sensor_type;location;lat;lon;timestamp;P1;P2;P0
65556;PMS3003;52200;53.490;14.376;2023-09-18T00:00:01;16.60;16.00;10.00
65556;PMS3003;52200;53.490;14.376;2023-09-18T00:02:30;17.00;17.00;11.00
65556;PMS3003;52200;53.490;14.376;2023-09-18T00:04:56;18.80;18.40;10.80
65556;PMS3003;52200;53.490;14.376;2023-09-18T00:07:21;16.75;16.50;9.00
65556;PMS3003;52200;53.490;14.376;2023-09-18T00:09:47;20.25;20.25;10.50
65556;PMS3003;52200;53.490;14.376;2023-09-18T00:12:14;17.00;17.00;11.00
65556;PMS3003;52200;53.490;14.376;2023-09-18T00:14:39;17.75;16.75;10.00
65556;PMS3003;52200;53.490;14.376;2023-09-18T00:17:06;17.80;17.80;9.60
65556;PMS3003;52200;53.490;14.376;2023-09-18T00:19:31;17.00;16.50;9.50
65556;PMS3003;52200;53.490;14.376;2023-09-18T00:21:58;18.80;17.80;10.00
65556;PMS3003;52200;53.490;14.376;2023-09-18T00:24:26;16.40;15.60;9.60
65556;PMS3003;52200;53.490;14.376;2023-09-18T00:26:51;17.60;17.60;9.60
65556;PMS3003;52200;53.490;14.376;2023-09-18T00:29:18;16.20;16.20;9.00
65556;PMS3003;52200;53.490;14.376;2023-09-18T00:31:44;16.40;16.40;9.40
65556;PMS3003;52200;53.490;14.376;2023-09-18T00:34:09;20.00;19.25;10.50
65556;PMS3003;52200;53.490;14.376;2023-09-18T00:36:34;20.25;18.25;10.50
65556;PMS3003;52200;53.490;14.376;2023-09-18T00:39:00;19.00;18.25;11.00
65556;PMS3003;52200;53.490;14.376;2023-09-18T00:41:25;16.50;16.50;10.00
65556;PMS3003;52200;53.490;14.376;2023-09-18T00:43:51;17.50;17.50;10.00
65556;PMS3003;52200;53.490;14.376;2023-09-18T00:46:16;18.25;18.25;10.25
65556;PMS3003;52200;53.490;14.376;2023-09-18T00:48:42;17.25;17.25;11.00
65556;PMS3003;52200;53.490;14.376;2023-09-18T00:51:08;20.00;17.50;11.00
65556;PMS3003;52200;53.490;14.376;2023-09-18T00:53:34;16.40;16.40;10.00
65556;PMS3003;52200;53.490;14.376;2023-09-18T00:56:00;17.60;17.40;10.00
65556;PMS3003;52200;53.490;14.376;2023-09-18T00:58:28;19.20;19.20;11.40
65556;PMS3003;52200;53.490;14.376;2023-09-18T01:00:54;22.40;21.40;11.80
65556;PMS3003;52200;53.490;14.376;2023-09-18T01:03:19;21.00;20.50;11.00
65556;PMS3003;52200;53.490;14.376;2023-09-18T01:05:46;21.60;21.00;11.00
65556;PMS3003;52200;53.490;14.376;2023-09-18T01:08:11;20.50;20.50;12.50
65556;PMS3003;52200;53.490;14.376;2023-09-18T01:10:40;22.75;21.75;11.75
65556;PMS3003;52200;53.490;14.376;2023-09-18T01:13:14;21.20;21.20;11.80
65556;PMS3003;52200;53.490;14.376;2023-09-18T01:15:50;20.20;19.00;12.40
65556;PMS3003;52200;53.490;14.376;2023-09-18T01:18:22;21.60;21.40;11.20
65556;PMS3003;52200;53.490;14.376;2023-09-18T01:20:48;21.00;19.50;11.25
65556;PMS3003;52200;53.490;14.376;2023-09-18T01:23:13;21.00;19.75;12.00
65556;PMS3003;52200;53.490;14.376;2023-09-18T01:25:39;18.75;18.50;12.00
65556;PMS3003;52200;53.490;14.376;2023-09-18T01:28:04;19.00;19.00;12.00
65556;PMS3003;52200;53.490;14.376;2023-09-18T01:30:30;20.25;20.25;12.25
65556;PMS3003;52200;53.490;14.376;2023-09-18T01:32:55;17.25;17.00;10.75
65556;PMS3003;52200;53.490;14.376;2023-09-18T01:35:25;20.20;20.20;10.60
65556;PMS3003;52200;53.490;14.376;2023-09-18T01:37:58;23.40;22.60;11.60
65556;PMS3003;52200;53.490;14.376;2023-09-18T01:40:25;23.20;22.40;13.00
65556;PMS3003;52200;53.490;14.376;2023-09-18T01:42:51;25.60;24.60;12.80
65556;PMS3003;52200;53.490;14.376;2023-09-18T01:45:16;18.25;18.00;11.50
65556;PMS3003;52200;53.490;14.376;2023-09-18T01:47:42;22.75;21.50;12.00
65556;PMS3003;52200;53.490;14.376;2023-09-18T01:50:07;20.00;19.00;12.00
65556;PMS3003;52200;53.490;14.376;2023-09-18T01:52:33;18.50;18.50;12.00
65556;PMS3003;52200;53.490;14.376;2023-09-18T01:54:59;20.20;19.80;11.00
65556;PMS3003;52200;53.490;14.376;2023-09-18T01:57:26;19.80;18.60;11.20
65556;PMS3003;52200;53.490;14.376;2023-09-18T01:59:51;20.75;19.75;11.25
65556;PMS3003;52200;53.490;14.376;2023-09-18T02:02:16;21.00;18.00;11.00
65556;PMS3003;52200;53.490;14.376;2023-09-18T02:04:42;19.25;19.00;11.25
65556;PMS3003;52200;53.490;14.376;2023-09-18T02:07:08;21.00;20.00;12.75
65556;PMS3003;52200;53.490;14.376;2023-09-18T02:09:34;17.60;17.60;11.40
65556;PMS3003;52200;53.490;14.376;2023-09-18T02:11:59;23.00;21.50;12.75
65556;PMS3003;52200;53.490;14.376;2023-09-18T02:14:25;21.75;20.25;11.00
65556;PMS3003;52200;53.490;14.376;2023-09-18T02:16:50;22.00;22.00;13.00
65556;PMS3003;52200;53.490;14.376;2023-09-18T02:19:16;20.60;20.60;11.60
65556;PMS3003;52200;53.490;14.376;2023-09-18T02:21:43;21.80;20.00;11.80
65556;PMS3003;52200;53.490;14.376;2023-09-18T02:24:08;22.25;21.25;12.25
65556;PMS3003;52200;53.490;14.376;2023-09-18T02:26:34;21.50;21.50;13.00
65556;PMS3003;52200;53.490;14.376;2023-09-18T02:29:02;23.60;23.00;13.20
65556;PMS3003;52200;53.490;14.376;2023-09-18T02:31:29;22.60;22.60;13.00
65556;PMS3003;52200;53.490;14.376;2023-09-18T02:33:55;28.00;26.50;15.00
65556;PMS3003;52200;53.490;14.376;2023-09-18T02:36:20;28.60;26.00;14.40
65556;PMS3003;52200;53.490;14.376;2023-09-18T02:38:46;32.00;27.75;15.25
65556;PMS3003;52200;53.490;14.376;2023-09-18T02:41:11;25.75;25.00;15.25
65556;PMS3003;52200;53.490;14.376;2023-09-18T02:43:36;25.75;24.75;15.00
65556;PMS3003;52200;53.490;14.376;2023-09-18T02:46:03;25.80;24.80;15.00
65556;PMS3003;52200;53.490;14.376;2023-09-18T02:48:30;28.80;27.00;14.60
65556;PMS3003;52200;53.490;14.376;2023-09-18T02:50:56;29.75;28.75;17.50
65556;PMS3003;52200;53.490;14.376;2023-09-18T02:53:22;27.40;24.60;14.20
65556;PMS3003;52200;53.490;14.376;2023-09-18T02:55:50;28.20;28.00;15.60
65556;PMS3003;52200;53.490;14.376;2023-09-18T02:58:16;24.00;23.80;14.40
65556;PMS3003;52200;53.490;14.376;2023-09-18T03:00:44;25.60;24.80;15.00
65556;PMS3003;52200;53.490;14.376;2023-09-18T03:03:11;28.60;28.60;16.20
65556;PMS3003;52200;53.490;14.376;2023-09-18T03:05:38;26.00;24.40;13.40
65556;PMS3003;52200;53.490;14.376;2023-09-18T03:08:04;26.20;26.20;16.00
65556;PMS3003;52200;53.490;14.376;2023-09-18T03:10:36;27.00;26.00;15.40
65556;PMS3003;52200;53.490;14.376;2023-09-18T03:13:04;29.00;29.00;17.80
65556;PMS3003;52200;53.490;14.376;2023-09-18T03:15:30;27.40;26.80;15.00
65556;PMS3003;52200;53.490;14.376;2023-09-18T03:17:59;27.00;27.00;18.00
65556;PMS3003;52200;53.490;14.376;2023-09-18T03:20:26;28.20;27.20;17.20
65556;PMS3003;52200;53.490;14.376;2023-09-18T03:22:54;30.40;29.60;15.40
65556;PMS3003;52200;53.490;14.376;2023-09-18T03:25:20;29.00;28.40;17.40
65556;PMS3003;52200;53.490;14.376;2023-09-18T03:27:47;27.75;27.50;16.25
65556;PMS3003;52200;53.490;14.376;2023-09-18T03:30:12;31.40;31.00;18.20
65556;PMS3003;52200;53.490;14.376;2023-09-18T03:32:40;29.40;28.60;16.00
65556;PMS3003;52200;53.490;14.376;2023-09-18T03:35:07;30.60;30.40;19.20
65556;PMS3003;52200;53.490;14.376;2023-09-18T03:37:34;31.80;30.40;18.60
65556;PMS3003;52200;53.490;14.376;2023-09-18T03:40:00;30.25;28.75;17.50
65556;PMS3003;52200;53.490;14.376;2023-09-18T03:42:26;29.80;29.80;20.20
65556;PMS3003;52200;53.490;14.376;2023-09-18T03:44:53;36.00;33.80;21.60
65556;PMS3003;52200;53.490;14.376;2023-09-18T03:47:18;29.25;29.25;18.75
65556;PMS3003;52200;53.490;14.376;2023-09-18T03:49:44;31.25;30.50;19.00
65556;PMS3003;52200;53.490;14.376;2023-09-18T03:52:09;33.25;31.00;19.00
65556;PMS3003;52200;53.490;14.376;2023-09-18T03:54:34;30.75;29.75;17.50
65556;PMS3003;52200;53.490;14.376;2023-09-18T03:57:00;30.75;29.75;18.00
65556;PMS3003;52200;53.490;14.376;2023-09-18T03:59:25;32.50;31.50;18.00
65556;PMS3003;52200;53.490;14.376;2023-09-18T04:01:50;30.75;30.75;18.50
65556;PMS3003;52200;53.490;14.376;2023-09-18T04:04:16;27.75;27.00;16.00
65556;PMS3003;52200;53.490;14.376;2023-09-18T04:06:42;32.00;31.00;19.50
65556;PMS3003;52200;53.490;14.376;2023-09-18T04:09:09;29.40;28.80;17.00
65556;PMS3003;52200;53.490;14.376;2023-09-18T04:11:34;30.75;30.00;17.25
65556;PMS3003;52200;53.490;14.376;2023-09-18T04:14:01;29.20;29.20;18.00
65556;PMS3003;52200;53.490;14.376;2023-09-18T04:16:28;30.00;29.60;17.40
65556;PMS3003;52200;53.490;14.376;2023-09-18T04:18:56;31.20;30.20;18.60
65556;PMS3003;52200;53.490;14.376;2023-09-18T04:21:22;28.75;28.00;16.25
65556;PMS3003;52200;53.490;14.376;2023-09-18T04:23:48;32.40;31.00;18.80
65556;PMS3003;52200;53.490;14.376;2023-09-18T04:26:21;32.20;30.80;18.80
65556;PMS3003;52200;53.490;14.376;2023-09-18T04:28:47;31.60;30.00;19.00
65556;PMS3003;52200;53.490;14.376;2023-09-18T04:31:13;34.25;31.75;19.00
65556;PMS3003;52200;53.490;14.376;2023-09-18T04:33:38;33.75;32.75;21.00
65556;PMS3003;52200;53.490;14.376;2023-09-18T04:36:04;37.75;33.25;21.00
65556;PMS3003;52200;53.490;14.376;2023-09-18T04:38:29;34.00;31.50;20.00
65556;PMS3003;52200;53.490;14.376;2023-09-18T04:40:58;34.75;32.50;19.00
65556;PMS3003;52200;53.490;14.376;2023-09-18T04:43:24;28.60;28.60;19.00
65556;PMS3003;52200;53.490;14.376;2023-09-18T04:45:50;34.00;33.00;21.00
65556;PMS3003;52200;53.490;14.376;2023-09-18T04:48:15;38.50;33.50;20.50
65556;PMS3003;52200;53.490;14.376;2023-09-18T04:50:45;40.80;36.00;23.00
65556;PMS3003;52200;53.490;14.376;2023-09-18T04:53:12;35.80;33.20;20.80
65556;PMS3003;52200;53.490;14.376;2023-09-18T04:55:38;39.20;34.60;21.00
65556;PMS3003;52200;53.490;14.376;2023-09-18T04:58:03;34.25;32.25;21.00
65556;PMS3003;52200;53.490;14.376;2023-09-18T05:00:30;38.40;34.60;21.80
65556;PMS3003;52200;53.490;14.376;2023-09-18T05:02:56;37.40;34.00;21.60
65556;PMS3003;52200;53.490;14.376;2023-09-18T05:05:25;40.00;35.60;22.80
65556;PMS3003;52200;53.490;14.376;2023-09-18T05:07:51;37.75;33.50;21.75
65556;PMS3003;52200;53.490;14.376;2023-09-18T05:10:16;33.75;32.00;19.00
65556;PMS3003;52200;53.490;14.376;2023-09-18T05:12:42;38.75;34.50;22.00
65556;PMS3003;52200;53.490;14.376;2023-09-18T05:15:07;35.50;32.25;19.25
65556;PMS3003;52200;53.490;14.376;2023-09-18T05:17:44;34.40;32.00;19.40
65556;PMS3003;52200;53.490;14.376;2023-09-18T05:20:19;34.40;32.40;20.60
65556;PMS3003;52200;53.490;14.376;2023-09-18T05:22:44;35.50;33.25;21.50
65556;PMS3003;52200;53.490;14.376;2023-09-18T05:25:10;35.50;33.50;20.00
65556;PMS3003;52200;53.490;14.376;2023-09-18T05:27:36;35.80;33.00;20.80
65556;PMS3003;52200;53.490;14.376;2023-09-18T05:30:13;35.20;32.60;20.40
65556;PMS3003;52200;53.490;14.376;2023-09-18T05:32:43;34.60;33.00;20.80
65556;PMS3003;52200;53.490;14.376;2023-09-18T05:35:10;35.20;33.20;21.00
65556;PMS3003;52200;53.490;14.376;2023-09-18T05:37:37;37.80;32.80;21.00
65556;PMS3003;52200;53.490;14.376;2023-09-18T05:40:07;33.80;31.80;20.00
65556;PMS3003;52200;53.490;14.376;2023-09-18T05:42:40;33.60;31.40;20.00
65556;PMS3003;52200;53.490;14.376;2023-09-18T05:45:13;33.20;30.80;19.00
65556;PMS3003;52200;53.490;14.376;2023-09-18T05:47:42;35.80;33.40;21.40
65556;PMS3003;52200;53.490;14.376;2023-09-18T05:50:11;35.50;33.50;20.25
65556;PMS3003;52200;53.490;14.376;2023-09-18T05:52:41;41.60;35.80;22.20
65556;PMS3003;52200;53.490;14.376;2023-09-18T05:55:07;41.40;34.80;22.00
65556;PMS3003;52200;53.490;14.376;2023-09-18T05:57:33;43.75;38.25;23.00
65556;PMS3003;52200;53.490;14.376;2023-09-18T05:59:59;41.40;35.80;22.00
65556;PMS3003;52200;53.490;14.376;2023-09-18T06:02:25;40.75;35.75;22.00
65556;PMS3003;52200;53.490;14.376;2023-09-18T06:04:57;38.75;35.00;22.00
65556;PMS3003;52200;53.490;14.376;2023-09-18T06:07:25;36.80;33.40;21.00
65556;PMS3003;52200;53.490;14.376;2023-09-18T06:09:54;35.60;33.00;21.00
65556;PMS3003;52200;53.490;14.376;2023-09-18T06:12:19;41.00;36.00;23.00
65556;PMS3003;52200;53.490;14.376;2023-09-18T06:14:46;37.00;33.00;20.60
65556;PMS3003;52200;53.490;14.376;2023-09-18T06:17:12;39.60;35.00;23.60
65556;PMS3003;52200;53.490;14.376;2023-09-18T06:19:39;33.80;31.40;20.20
65556;PMS3003;52200;53.490;14.376;2023-09-18T06:22:05;35.00;32.40;20.00
65556;PMS3003;52200;53.490;14.376;2023-09-18T06:24:32;37.60;33.00;20.00
65556;PMS3003;52200;53.490;14.376;2023-09-18T06:26:58;33.20;31.80;19.80
65556;PMS3003;52200;53.490;14.376;2023-09-18T06:29:23;37.00;34.00;20.75
65556;PMS3003;52200;53.490;14.376;2023-09-18T06:31:49;35.50;32.25;20.00
65556;PMS3003;52200;53.490;14.376;2023-09-18T06:34:15;40.00;35.00;21.25
65556;PMS3003;52200;53.490;14.376;2023-09-18T06:36:41;33.60;31.60;20.20
65556;PMS3003;52200;53.490;14.376;2023-09-18T06:39:06;32.25;30.50;19.50
65556;PMS3003;52200;53.490;14.376;2023-09-18T06:41:32;32.80;30.20;19.00
65556;PMS3003;52200;53.490;14.376;2023-09-18T06:43:57;32.00;30.25;18.25
65556;PMS3003;52200;53.490;14.376;2023-09-18T06:46:23;27.25;26.50;16.00
65556;PMS3003;52200;53.490;14.376;2023-09-18T06:48:49;30.25;28.25;16.75
65556;PMS3003;52200;53.490;14.376;2023-09-18T06:51:16;27.00;26.60;16.40
65556;PMS3003;52200;53.490;14.376;2023-09-18T06:53:43;28.50;26.75;15.75
65556;PMS3003;52200;53.490;14.376;2023-09-18T06:56:09;29.40;28.80;18.00
65556;PMS3003;52200;53.490;14.376;2023-09-18T06:58:35;26.75;26.75;15.50
65556;PMS3003;52200;53.490;14.376;2023-09-18T07:01:00;27.25;26.00;15.00
65556;PMS3003;52200;53.490;14.376;2023-09-18T07:03:26;28.50;27.75;16.00
65556;PMS3003;52200;53.490;14.376;2023-09-18T07:05:51;26.50;25.75;15.00
65556;PMS3003;52200;53.490;14.376;2023-09-18T07:08:17;29.00;28.00;17.00
65556;PMS3003;52200;53.490;14.376;2023-09-18T07:10:48;28.60;27.00;15.00
65556;PMS3003;52200;53.490;14.376;2023-09-18T07:13:15;27.60;25.60;14.00
65556;PMS3003;52200;53.490;14.376;2023-09-18T07:15:40;25.75;24.75;15.00
65556;PMS3003;52200;53.490;14.376;2023-09-18T07:18:06;26.60;24.80;14.00
65556;PMS3003;52200;53.490;14.376;2023-09-18T07:20:32;24.75;24.50;15.00
65556;PMS3003;52200;53.490;14.376;2023-09-18T07:22:57;23.75;23.00;13.50
65556;PMS3003;52200;53.490;14.376;2023-09-18T07:25:23;23.50;22.25;14.00
65556;PMS3003;52200;53.490;14.376;2023-09-18T07:27:48;23.50;22.50;14.25
65556;PMS3003;52200;53.490;14.376;2023-09-18T07:30:14;21.50;21.00;13.00
65556;PMS3003;52200;53.490;14.376;2023-09-18T07:32:45;20.80;20.60;12.80
65556;PMS3003;52200;53.490;14.376;2023-09-18T07:35:11;21.50;21.50;12.75
65556;PMS3003;52200;53.490;14.376;2023-09-18T07:37:38;21.40;21.40;12.00
65556;PMS3003;52200;53.490;14.376;2023-09-18T07:40:05;21.50;20.75;13.00
65556;PMS3003;52200;53.490;14.376;2023-09-18T07:42:31;20.60;19.80;12.00
65556;PMS3003;52200;53.490;14.376;2023-09-18T07:44:56;19.75;18.75;11.25
65556;PMS3003;52200;53.490;14.376;2023-09-18T07:47:22;18.75;18.00;10.75
65556;PMS3003;52200;53.490;14.376;2023-09-18T07:49:47;18.50;18.50;11.00
65556;PMS3003;52200;53.490;14.376;2023-09-18T07:52:13;18.75;18.25;11.75
65556;PMS3003;52200;53.490;14.376;2023-09-18T07:54:39;23.20;21.20;12.00
65556;PMS3003;52200;53.490;14.376;2023-09-18T07:57:05;19.00;19.00;11.00
65556;PMS3003;52200;53.490;14.376;2023-09-18T07:59:34;22.60;21.40;12.00
65556;PMS3003;52200;53.490;14.376;2023-09-18T08:02:00;21.80;20.40;12.00
65556;PMS3003;52200;53.490;14.376;2023-09-18T08:04:25;21.00;20.50;13.00
65556;PMS3003;52200;53.490;14.376;2023-09-18T08:06:51;20.25;20.25;12.25
65556;PMS3003;52200;53.490;14.376;2023-09-18T08:09:16;21.75;21.00;12.00
65556;PMS3003;52200;53.490;14.376;2023-09-18T08:11:42;20.00;20.00;12.00
65556;PMS3003;52200;53.490;14.376;2023-09-18T08:14:10;17.40;17.40;11.80
65556;PMS3003;52200;53.490;14.376;2023-09-18T08:16:39;17.60;17.20;10.00
65556;PMS3003;52200;53.490;14.376;2023-09-18T08:19:04;19.00;18.00;10.60
65556;PMS3003;52200;53.490;14.376;2023-09-18T08:21:31;16.00;16.00;9.40
65556;PMS3003;52200;53.490;14.376;2023-09-18T08:23:57;17.75;17.25;11.00
65556;PMS3003;52200;53.490;14.376;2023-09-18T08:26:22;18.75;18.00;10.75
65556;PMS3003;52200;53.490;14.376;2023-09-18T08:28:48;18.00;17.00;9.00
65556;PMS3003;52200;53.490;14.376;2023-09-18T08:31:13;16.00;15.00;8.40
65556;PMS3003;52200;53.490;14.376;2023-09-18T08:33:41;18.40;18.00;10.80
65556;PMS3003;52200;53.490;14.376;2023-09-18T08:36:07;14.40;14.40;8.80
65556;PMS3003;52200;53.490;14.376;2023-09-18T08:38:32;17.00;16.25;9.75
65556;PMS3003;52200;53.490;14.376;2023-09-18T08:40:58;18.50;18.50;11.50
65556;PMS3003;52200;53.490;14.376;2023-09-18T08:43:24;17.20;16.40;10.40
65556;PMS3003;52200;53.490;14.376;2023-09-18T08:45:51;19.75;19.00;10.75
65556;PMS3003;52200;53.490;14.376;2023-09-18T08:48:18;15.40;15.40;9.80
65556;PMS3003;52200;53.490;14.376;2023-09-18T08:50:45;17.20;17.20;10.80
65556;PMS3003;52200;53.490;14.376;2023-09-18T08:53:12;18.20;16.40;9.00
65556;PMS3003;52200;53.490;14.376;2023-09-18T08:55:37;19.00;18.50;10.25
65556;PMS3003;52200;53.490;14.376;2023-09-18T08:58:03;18.00;16.50;9.00
65556;PMS3003;52200;53.490;14.376;2023-09-18T09:00:29;17.40;17.00;9.00
65556;PMS3003;52200;53.490;14.376;2023-09-18T09:02:54;18.25;18.00;10.00
65556;PMS3003;52200;53.490;14.376;2023-09-18T09:05:20;16.50;16.00;8.50
65556;PMS3003;52200;53.490;14.376;2023-09-18T09:07:48;19.20;17.80;10.60
65556;PMS3003;52200;53.490;14.376;2023-09-18T09:10:14;19.20;18.60;9.60
65556;PMS3003;52200;53.490;14.376;2023-09-18T09:12:46;16.50;16.50;9.50
65556;PMS3003;52200;53.490;14.376;2023-09-18T09:15:16;17.20;17.00;9.80
65556;PMS3003;52200;53.490;14.376;2023-09-18T09:17:42;19.00;18.60;11.00
65556;PMS3003;52200;53.490;14.376;2023-09-18T09:20:09;17.00;16.80;10.00
65556;PMS3003;52200;53.490;14.376;2023-09-18T09:22:37;16.20;15.80;9.80
65556;PMS3003;52200;53.490;14.376;2023-09-18T09:25:03;17.00;17.00;11.00
65556;PMS3003;52200;53.490;14.376;2023-09-18T09:27:41;17.60;17.40;10.00
65556;PMS3003;52200;53.490;14.376;2023-09-18T09:30:07;17.20;17.00;11.00
65556;PMS3003;52200;53.490;14.376;2023-09-18T09:32:34;18.00;18.00;11.00
65556;PMS3003;52200;53.490;14.376;2023-09-18T09:35:00;15.75;15.25;9.00
65556;PMS3003;52200;53.490;14.376;2023-09-18T09:37:30;19.20;18.80;10.60
65556;PMS3003;52200;53.490;14.376;2023-09-18T09:39:56;14.40;14.40;10.00
65556;PMS3003;52200;53.490;14.376;2023-09-18T09:42:21;18.00;18.00;9.25
65556;PMS3003;52200;53.490;14.376;2023-09-18T09:45:10;17.40;16.80;10.40
65556;PMS3003;52200;53.490;14.376;2023-09-18T09:47:37;19.00;18.00;10.00
65556;PMS3003;52200;53.490;14.376;2023-09-18T09:50:10;15.20;15.00;8.80
65556;PMS3003;52200;53.490;14.376;2023-09-18T09:52:48;16.80;15.80;10.00
65556;PMS3003;52200;53.490;14.376;2023-09-18T09:55:33;15.20;15.20;9.00
65556;PMS3003;52200;53.490;14.376;2023-09-18T09:58:00;15.00;14.80;8.60
65556;PMS3003;52200;53.490;14.376;2023-09-18T10:00:29;16.00;16.00;8.00
65556;PMS3003;52200;53.490;14.376;2023-09-18T10:03:06;15.80;14.20;8.40
65556;PMS3003;52200;53.490;14.376;2023-09-18T10:05:35;15.80;15.40;8.00
65556;PMS3003;52200;53.490;14.376;2023-09-18T10:08:10;14.20;14.20;8.00
65556;PMS3003;52200;53.490;14.376;2023-09-18T10:10:43;13.20;13.20;7.40
65556;PMS3003;52200;53.490;14.376;2023-09-18T10:13:15;15.60;15.00;8.20
65556;PMS3003;52200;53.490;14.376;2023-09-18T10:15:44;14.60;14.60;7.60
65556;PMS3003;52200;53.490;14.376;2023-09-18T10:20:47;14.20;13.80;8.80
65556;PMS3003;52200;53.490;14.376;2023-09-18T10:23:38;14.40;13.80;7.40
65556;PMS3003;52200;53.490;14.376;2023-09-18T10:26:09;16.20;16.20;9.20
65556;PMS3003;52200;53.490;14.376;2023-09-18T10:28:41;16.00;14.80;8.00
65556;PMS3003;52200;53.490;14.376;2023-09-18T10:31:08;15.60;14.60;7.00
65556;PMS3003;52200;53.490;14.376;2023-09-18T10:33:37;14.00;14.00;8.00
65556;PMS3003;52200;53.490;14.376;2023-09-18T10:36:03;15.80;15.00;9.20
65556;PMS3003;52200;53.490;14.376;2023-09-18T10:38:31;15.00;14.60;8.40
65556;PMS3003;52200;53.490;14.376;2023-09-18T10:40:58;14.40;14.00;8.20
65556;PMS3003;52200;53.490;14.376;2023-09-18T10:43:25;12.40;12.40;8.00
65556;PMS3003;52200;53.490;14.376;2023-09-18T10:45:50;14.50;14.50;8.75
65556;PMS3003;52200;53.490;14.376;2023-09-18T10:48:17;15.60;15.00;7.60
65556;PMS3003;52200;53.490;14.376;2023-09-18T10:50:44;13.80;13.80;8.80
65556;PMS3003;52200;53.490;14.376;2023-09-18T10:53:10;12.40;12.40;7.60
65556;PMS3003;52200;53.490;14.376;2023-09-18T10:55:37;14.00;14.00;8.00
65556;PMS3003;52200;53.490;14.376;2023-09-18T10:58:03;12.80;12.60;7.00
65556;PMS3003;52200;53.490;14.376;2023-09-18T11:00:30;13.75;13.00;7.00
65556;PMS3003;52200;53.490;14.376;2023-09-18T11:03:13;13.60;12.80;7.00
65556;PMS3003;52200;53.490;14.376;2023-09-18T11:05:46;15.00;14.00;7.40
65556;PMS3003;52200;53.490;14.376;2023-09-18T11:08:28;14.20;13.80;8.00
65556;PMS3003;52200;53.490;14.376;2023-09-18T11:11:06;13.80;13.00;7.00
65556;PMS3003;52200;53.490;14.376;2023-09-18T11:16:32;12.60;11.60;6.00
65556;PMS3003;52200;53.490;14.376;2023-09-18T11:19:05;13.40;13.20;5.80
65556;PMS3003;52200;53.490;14.376;2023-09-18T11:21:34;11.60;11.00;5.60
65556;PMS3003;52200;53.490;14.376;2023-09-18T11:24:00;11.60;11.20;6.00
65556;PMS3003;52200;53.490;14.376;2023-09-18T11:26:29;12.40;12.00;7.40
65556;PMS3003;52200;53.490;14.376;2023-09-18T11:28:58;11.80;11.80;6.00
65556;PMS3003;52200;53.490;14.376;2023-09-18T11:31:46;11.60;11.40;6.00
65556;PMS3003;52200;53.490;14.376;2023-09-18T11:36:41;13.80;12.80;6.20
65556;PMS3003;52200;53.490;14.376;2023-09-18T11:39:07;13.00;12.80;6.00
65556;PMS3003;52200;53.490;14.376;2023-09-18T11:41:34;11.20;11.20;6.00
65556;PMS3003;52200;53.490;14.376;2023-09-18T11:46:32;12.20;12.00;7.00
65556;PMS3003;52200;53.490;14.376;2023-09-18T11:48:58;12.60;12.60;7.00
65556;PMS3003;52200;53.490;14.376;2023-09-18T11:51:24;13.00;12.20;6.40
65556;PMS3003;52200;53.490;14.376;2023-09-18T11:53:52;12.40;12.40;6.80
65556;PMS3003;52200;53.490;14.376;2023-09-18T11:56:20;11.60;11.60;7.00
65556;PMS3003;52200;53.490;14.376;2023-09-18T11:58:46;12.00;12.00;7.00
65556;PMS3003;52200;53.490;14.376;2023-09-18T12:01:17;11.20;10.60;5.00
65556;PMS3003;52200;53.490;14.376;2023-09-18T12:03:43;12.40;12.00;7.00
65556;PMS3003;52200;53.490;14.376;2023-09-18T12:06:10;13.40;13.40;7.00
65556;PMS3003;52200;53.490;14.376;2023-09-18T12:08:38;11.80;11.00;6.60
65556;PMS3003;52200;53.490;14.376;2023-09-18T12:11:05;12.00;11.80;5.20
65556;PMS3003;52200;53.490;14.376;2023-09-18T12:13:31;14.20;14.00;8.00
65556;PMS3003;52200;53.490;14.376;2023-09-18T12:16:01;12.25;12.25;7.00
65556;PMS3003;52200;53.490;14.376;2023-09-18T12:18:29;12.20;12.00;5.80
65556;PMS3003;52200;53.490;14.376;2023-09-18T12:20:56;13.60;11.40;6.60
65556;PMS3003;52200;53.490;14.376;2023-09-18T12:23:24;11.20;11.00;6.00
65556;PMS3003;52200;53.490;14.376;2023-09-18T12:25:50;12.40;12.40;7.00
65556;PMS3003;52200;53.490;14.376;2023-09-18T12:28:24;11.40;11.20;6.60
65556;PMS3003;52200;53.490;14.376;2023-09-18T12:30:52;11.00;10.80;6.20
65556;PMS3003;52200;53.490;14.376;2023-09-18T12:33:21;12.00;12.00;6.00
65556;PMS3003;52200;53.490;14.376;2023-09-18T12:35:47;13.60;12.80;5.00
65556;PMS3003;52200;53.490;14.376;2023-09-18T12:38:13;13.50;13.25;6.00
65556;PMS3003;52200;53.490;14.376;2023-09-18T12:40:40;11.40;10.40;6.40
65556;PMS3003;52200;53.490;14.376;2023-09-18T12:43:05;13.00;11.25;5.50
65556;PMS3003;52200;53.490;14.376;2023-09-18T12:45:31;13.00;12.00;7.00
65556;PMS3003;52200;53.490;14.376;2023-09-18T12:47:57;10.75;10.75;6.00
65556;PMS3003;52200;53.490;14.376;2023-09-18T12:50:24;11.60;11.60;6.00
65556;PMS3003;52200;53.490;14.376;2023-09-18T12:52:50;13.40;12.40;5.00
65556;PMS3003;52200;53.490;14.376;2023-09-18T12:55:22;11.25;11.00;5.75
65556;PMS3003;52200;53.490;14.376;2023-09-18T12:57:52;12.40;12.40;6.80
65556;PMS3003;52200;53.490;14.376;2023-09-18T13:00:18;10.20;9.40;4.60
65556;PMS3003;52200;53.490;14.376;2023-09-18T13:02:47;10.60;10.20;5.40
65556;PMS3003;52200;53.490;14.376;2023-09-18T13:05:18;11.20;11.00;6.40
65556;PMS3003;52200;53.490;14.376;2023-09-18T13:07:44;10.80;10.80;6.00
65556;PMS3003;52200;53.490;14.376;2023-09-18T13:10:10;11.75;11.00;4.75
65556;PMS3003;52200;53.490;14.376;2023-09-18T13:12:43;12.00;11.40;5.00
65556;PMS3003;52200;53.490;14.376;2023-09-18T13:15:12;10.00;10.00;4.60
65556;PMS3003;52200;53.490;14.376;2023-09-18T13:17:42;13.40;13.00;5.00
65556;PMS3003;52200;53.490;14.376;2023-09-18T13:20:11;10.40;10.40;6.00
65556;PMS3003;52200;53.490;14.376;2023-09-18T13:22:38;11.40;11.20;5.00
65556;PMS3003;52200;53.490;14.376;2023-09-18T13:25:05;12.20;11.20;5.20
65556;PMS3003;52200;53.490;14.376;2023-09-18T13:27:32;11.00;11.00;5.00
65556;PMS3003;52200;53.490;14.376;2023-09-18T13:29:58;11.75;11.75;6.00
65556;PMS3003;52200;53.490;14.376;2023-09-18T13:32:31;11.40;10.80;5.20
65556;PMS3003;52200;53.490;14.376;2023-09-18T13:35:01;12.00;11.00;4.80
65556;PMS3003;52200;53.490;14.376;2023-09-18T13:37:33;12.40;11.80;5.40
65556;PMS3003;52200;53.490;14.376;2023-09-18T13:39:59;11.60;11.60;6.00
65556;PMS3003;52200;53.490;14.376;2023-09-18T13:42:31;11.60;11.60;6.40
65556;PMS3003;52200;53.490;14.376;2023-09-18T13:44:57;13.50;13.25;6.75
65556;PMS3003;52200;53.490;14.376;2023-09-18T13:47:25;11.60;11.00;6.00
65556;PMS3003;52200;53.490;14.376;2023-09-18T13:49:52;13.80;13.60;6.20